Time;durP1;ratioP1;P1;durP2;ratioP2;P2;SDS_P1;SDS_P2;PMS_P1;PMS_P2;Temp;Humidity;BMP_temperature;BMP_pressure;BME280_temperature;BME280_humidity;BME280_pressure;Samples;Min_cycle;Max_cycle;Signal;HPM_P1;HPM_P2
2021/10/20 00:01:38;;;;;;;0.38;0.38;;;;;;;18.25;64.20;101014.94;5089857;28;20087;-88
2021/10/20 00:04:05;;;;;;;0.20;0.20;;;;;;;18.23;64.14;101013.28;5092246;28;20387;-85
2021/10/20 00:06:32;;;;;;;0.17;0.17;;;;;;;18.22;63.98;101006.22;5092967;28;20043;-86
2021/10/20 00:08:59;;;;;;;0.10;0.10;;;;;;;18.29;64.04;101002.25;5091883;28;20032;-86
2021/10/20 00:11:26;;;;;;;0.40;0.40;;;;;;;18.11;64.07;100996.88;5091816;28;20051;-86
2021/10/20 00:13:52;;;;;;;0.10;0.10;;;;;;;18.37;63.59;100992.03;5091903;28;20058;-86
2021/10/20 00:16:20;;;;;;;0.10;0.10;;;;;;;18.35;63.47;100996.59;5092292;28;20055;-86
2021/10/20 00:18:48;;;;;;;0.52;0.52;;;;;;;18.39;63.56;100990.16;5092626;28;20028;-86
2021/10/20 00:21:20;;;;;;;0.20;0.20;;;;;;;18.43;62.94;100974.75;5091998;28;20028;-86
2021/10/20 00:23:47;;;;;;;0.10;0.10;;;;;;;18.52;62.87;100976.09;5092104;28;20101;-87
2021/10/20 00:26:13;;;;;;;0.10;0.10;;;;;;;18.52;62.59;100974.28;5091173;28;20016;-86
2021/10/20 00:28:40;;;;;;;0.10;0.10;;;;;;;18.56;62.67;100961.56;5092474;28;20585;-86
2021/10/20 00:31:07;;;;;;;1.10;1.08;;;;;;;18.51;62.66;100963.63;5093058;28;20043;-86
2021/10/20 00:33:33;;;;;;;0.10;0.10;;;;;;;18.50;62.99;100967.25;5092485;28;20026;-86
2021/10/20 00:36:04;;;;;;;0.85;0.85;;;;;;;18.48;62.62;100961.97;5092794;28;20074;-86
2021/10/20 00:38:31;;;;;;;0.73;0.73;;;;;;;18.29;62.81;100956.66;5092614;28;20107;-86
2021/10/20 00:40:57;;;;;;;1.35;0.73;;;;;;;18.46;62.59;100955.81;5092207;28;20026;-86
2021/10/20 00:43:24;;;;;;;0.38;0.38;;;;;;;18.39;62.29;100957.94;5086852;28;20029;-87
2021/10/20 00:45:51;;;;;;;0.32;0.32;;;;;;;18.46;62.49;100946.91;5090951;28;20021;-86
2021/10/20 00:48:18;;;;;;;0.40;0.40;;;;;;;18.44;62.42;100949.66;5092806;28;20402;-86
2021/10/20 00:50:49;;;;;;;0.20;0.20;;;;;;;18.48;62.13;100947.69;5092185;28;20452;-85
2021/10/20 00:53:21;;;;;;;1.52;1.15;;;;;;;18.41;61.97;100942.63;5094052;28;20478;-86
2021/10/20 00:55:56;;;;;;;0.10;0.10;;;;;;;18.47;61.81;100921.78;5093911;28;20028;-86
2021/10/20 00:58:24;;;;;;;1.08;1.08;;;;;;;18.42;62.00;100932.78;5094301;28;20040;-87
2021/10/20 01:00:50;;;;;;;0.13;0.13;;;;;;;18.30;62.08;100942.31;5091893;28;20032;-92
2021/10/20 01:03:18;;;;;;;0.75;0.75;;;;;;;18.40;61.78;100932.84;5092874;28;20119;-89
2021/10/20 01:05:44;;;;;;;1.27;1.27;;;;;;;18.36;61.92;100930.41;5091100;28;20032;-89
2021/10/20 01:08:11;;;;;;;0.20;0.20;;;;;;;18.43;61.65;100921.97;5090840;28;20476;-86
2021/10/20 01:10:38;;;;;;;0.10;0.10;;;;;;;18.40;61.79;100921.25;5091193;28;20479;-86
2021/10/20 01:13:04;;;;;;;0.10;0.10;;;;;;;18.41;61.73;100921.16;5090813;28;20080;-88
2021/10/20 01:15:31;;;;;;;0.25;0.25;;;;;;;18.36;61.37;100909.81;5090690;28;20356;-91
2021/10/20 01:17:57;;;;;;;0.10;0.10;;;;;;;18.48;61.20;100896.69;5090706;28;20031;-86
2021/10/20 01:20:27;;;;;;;0.10;0.10;;;;;;;18.40;61.37;100892.59;5091859;28;20059;-86
2021/10/20 01:22:54;;;;;;;0.13;0.13;;;;;;;18.42;61.06;100904.13;5089146;28;20127;-86
2021/10/20 01:25:21;;;;;;;0.90;0.90;;;;;;;18.41;60.96;100898.84;5090454;28;20111;-87
2021/10/20 01:27:47;;;;;;;0.10;0.10;;;;;;;18.42;61.02;100901.44;5088062;28;20521;-87
2021/10/20 01:30:14;;;;;;;0.10;0.10;;;;;;;18.45;60.74;100896.88;5090198;28;20039;-86
2021/10/20 01:32:41;;;;;;;1.42;1.38;;;;;;;18.51;60.61;100900.09;5089544;28;20032;-87
2021/10/20 01:35:08;;;;;;;2.35;0.80;;;;;;;18.45;60.92;100895.06;5090009;28;20040;-87
2021/10/20 01:37:35;;;;;;;0.40;0.40;;;;;;;18.45;60.65;100887.00;5089306;28;20028;-86
2021/10/20 01:40:03;;;;;;;0.45;0.45;;;;;;;18.48;60.66;100894.03;5086747;28;20425;-86
2021/10/20 01:42:30;;;;;;;0.20;0.20;;;;;;;18.47;60.61;100892.28;5089802;28;20032;-88
2021/10/20 01:44:57;;;;;;;0.40;0.40;;;;;;;18.54;60.40;100881.16;5089982;28;20036;-87
2021/10/20 01:47:24;;;;;;;2.38;0.73;;;;;;;18.52;60.25;100885.75;5090165;28;20026;-87
2021/10/20 01:49:51;;;;;;;0.73;0.52;;;;;;;18.46;60.60;100883.38;5089785;28;20502;-86
2021/10/20 01:52:18;;;;;;;0.20;0.20;;;;;;;18.51;60.26;100875.09;5089679;28;20112;-86
2021/10/20 01:54:44;;;;;;;0.20;0.20;;;;;;;18.45;60.62;100880.78;5089915;28;20110;-86
2021/10/20 01:57:11;;;;;;;0.10;0.10;;;;;;;18.56;60.13;100881.09;5089442;28;20028;-86
2021/10/20 01:59:37;;;;;;;0.60;0.60;;;;;;;18.52;59.82;100875.00;5089242;28;20031;-87
2021/10/20 02:02:04;;;;;;;0.10;0.10;;;;;;;18.56;59.89;100867.66;5089748;28;20107;-86
2021/10/20 02:04:30;;;;;;;0.20;0.20;;;;;;;18.59;59.53;100862.13;5089140;28;20032;-87
2021/10/20 02:06:57;;;;;;;0.30;0.30;;;;;;;18.61;59.44;100851.31;5089298;28;20483;-86
2021/10/20 02:09:23;;;;;;;0.10;0.10;;;;;;;18.66;59.40;100844.75;5084537;28;20028;-89
2021/10/20 02:11:50;;;;;;;0.13;0.13;;;;;;;18.66;59.38;100836.69;5083254;28;20413;-87
2021/10/20 02:14:16;;;;;;;0.20;0.20;;;;;;;18.65;59.28;100824.22;5089406;28;20119;-86
2021/10/20 02:16:43;;;;;;;0.22;0.22;;;;;;;18.66;59.36;100825.97;5089908;28;20036;-88
2021/10/20 02:19:09;;;;;;;0.43;0.43;;;;;;;18.70;59.26;100816.78;5089640;28;20074;-86
2021/10/20 02:21:36;;;;;;;0.20;0.20;;;;;;;18.61;59.41;100819.97;5089688;28;20398;-87
2021/10/20 02:24:03;;;;;;;0.28;0.28;;;;;;;18.59;59.19;100814.72;5089819;28;20386;-87
2021/10/20 02:26:30;;;;;;;0.10;0.10;;;;;;;18.60;59.33;100812.88;5089650;28;20406;-87
2021/10/20 02:28:56;;;;;;;0.35;0.30;;;;;;;18.66;59.12;100822.44;5087185;28;20078;-86
2021/10/20 02:31:23;;;;;;;0.20;0.20;;;;;;;18.57;59.35;100811.22;5088814;28;20058;-86
2021/10/20 02:33:50;;;;;;;0.10;0.10;;;;;;;18.76;58.96;100819.13;5089691;28;20028;-87
2021/10/20 02:36:16;;;;;;;1.67;1.08;;;;;;;18.73;58.79;100816.63;5087675;28;20070;-86
2021/10/20 02:38:43;;;;;;;0.15;0.15;;;;;;;18.69;58.63;100798.97;5089465;28;20043;-87
2021/10/20 02:41:10;;;;;;;0.88;0.88;;;;;;;18.82;58.40;100809.88;5090537;28;20035;-86
2021/10/20 02:43:38;;;;;;;0.10;0.10;;;;;;;18.77;58.53;100801.22;5086269;28;20459;-85
2021/10/20 02:46:04;;;;;;;0.20;0.20;;;;;;;18.79;58.59;100796.66;5089350;28;20125;-86
2021/10/20 02:48:31;;;;;;;0.20;0.20;;;;;;;18.85;58.21;100798.13;5090763;28;20040;-90
2021/10/20 02:51:01;;;;;;;0.38;0.38;;;;;;;18.86;58.33;100789.97;5091246;28;20394;-88
2021/10/20 02:53:27;;;;;;;0.30;0.30;;;;;;;18.88;58.42;100777.34;5093061;28;20028;-86
2021/10/20 02:55:53;;;;;;;0.57;0.47;;;;;;;18.89;58.19;100778.19;5086633;28;20024;-87
2021/10/20 02:58:21;;;;;;;0.30;0.30;;;;;;;18.88;58.43;100766.59;5091048;28;20031;-86
2021/10/20 03:00:47;;;;;;;0.13;0.13;;;;;;;18.85;58.38;100765.91;5091442;28;20032;-87
2021/10/20 03:03:13;;;;;;;0.45;0.45;;;;;;;18.83;58.51;100767.78;5092930;28;20043;-86
2021/10/20 03:05:40;;;;;;;0.10;0.10;;;;;;;18.80;58.60;100768.84;5092802;28;20043;-86
2021/10/20 03:08:06;;;;;;;0.10;0.10;;;;;;;18.79;58.11;100767.13;5091403;28;20028;-87
2021/10/20 03:10:33;;;;;;;1.50;1.42;;;;;;;18.73;58.07;100757.59;5092501;28;20058;-86
2021/10/20 03:12:59;;;;;;;0.10;0.10;;;;;;;18.89;58.07;100754.03;5090846;28;20036;-86
2021/10/20 03:15:25;;;;;;;0.90;0.90;;;;;;;18.84;57.92;100754.31;5087889;28;20052;-87
2021/10/20 03:17:52;;;;;;;0.25;0.25;;;;;;;18.86;58.06;100762.28;5089393;28;20089;-86
2021/10/20 03:20:18;;;;;;;0.10;0.10;;;;;;;18.74;58.21;100764.69;5091895;28;20032;-87
2021/10/20 03:22:46;;;;;;;0.57;0.57;;;;;;;18.95;57.89;100753.72;5089460;28;20115;-87
2021/10/20 03:25:13;;;;;;;0.52;0.52;;;;;;;18.93;57.89;100747.59;5091756;28;20024;-86
2021/10/20 03:27:43;;;;;;;0.10;0.10;;;;;;;19.00;57.54;100753.47;5092630;28;20036;-86
2021/10/20 03:30:10;;;;;;;9.85;2.83;;;;;;;18.91;57.32;100753.03;5091780;28;20032;-86
2021/10/20 03:32:39;;;;;;;0.47;0.47;;;;;;;19.08;57.29;100746.69;5090850;28;20077;-88
2021/10/20 03:35:07;;;;;;;3.25;0.65;;;;;;;19.08;56.98;100752.06;5091929;28;20032;-88
2021/10/20 03:37:33;;;;;;;1.88;1.77;;;;;;;19.14;56.93;100742.81;5092496;28;20056;-86
2021/10/20 03:40:00;;;;;;;2.92;2.20;;;;;;;19.11;56.79;100745.66;5092035;28;20044;-86
2021/10/20 03:42:26;;;;;;;1.85;0.75;;;;;;;19.19;56.60;100734.47;5092393;28;20122;-86
2021/10/20 03:44:53;;;;;;;0.20;0.20;;;;;;;19.25;56.85;100734.09;5092209;28;20032;-87
2021/10/20 03:47:19;;;;;;;0.57;0.57;;;;;;;19.18;57.00;100743.50;5092099;28;20364;-85
2021/10/20 03:49:47;;;;;;;1.15;1.05;;;;;;;19.04;57.14;100742.47;5090211;28;20120;-87
2021/10/20 03:52:13;;;;;;;0.13;0.13;;;;;;;19.03;57.06;100732.69;5090415;28;20028;-87
2021/10/20 03:54:40;;;;;;;0.43;0.30;;;;;;;19.01;57.05;100723.84;5092303;28;20035;-85
2021/10/20 03:57:07;;;;;;;0.85;0.85;;;;;;;18.91;57.32;100728.84;5091614;28;20130;-85
2021/10/20 03:59:33;;;;;;;0.82;0.82;;;;;;;18.95;57.25;100717.97;5091853;28;20485;-86
2021/10/20 04:01:59;;;;;;;0.43;0.43;;;;;;;18.98;57.39;100712.41;5090702;28;20044;-86
2021/10/20 04:04:25;;;;;;;3.35;3.08;;;;;;;18.98;57.36;100707.03;5090033;28;20028;-86
2021/10/20 04:06:52;;;;;;;0.30;0.30;;;;;;;19.02;57.34;100698.72;5091406;28;20055;-86
2021/10/20 04:09:18;;;;;;;0.20;0.20;;;;;;;19.09;57.21;100710.00;5091420;28;20051;-87
2021/10/20 04:11:44;;;;;;;1.45;1.35;;;;;;;19.07;57.42;100699.31;5085704;28;20094;-86
2021/10/20 04:14:10;;;;;;;0.95;0.93;;;;;;;18.91;57.80;100685.06;5091356;28;20032;-87
2021/10/20 04:16:36;;;;;;;0.30;0.30;;;;;;;18.98;57.71;100675.69;5091224;28;20152;-86
2021/10/20 04:19:03;;;;;;;0.22;0.22;;;;;;;19.10;57.56;100684.00;5091436;28;20078;-86
2021/10/20 04:21:29;;;;;;;2.83;1.17;;;;;;;19.11;57.53;100683.03;5091247;28;20039;-88
2021/10/20 04:23:55;;;;;;;0.25;0.25;;;;;;;19.14;57.13;100670.31;5091523;28;20066;-87
2021/10/20 04:26:22;;;;;;;0.20;0.20;;;;;;;19.35;56.93;100672.66;5091127;28;20474;-87
2021/10/20 04:28:48;;;;;;;0.38;0.38;;;;;;;19.40;57.04;100658.00;5090640;28;20138;-89
2021/10/20 04:31:15;;;;;;;0.30;0.30;;;;;;;19.42;56.93;100657.91;5091429;28;20123;-88
2021/10/20 04:33:41;;;;;;;0.60;0.60;;;;;;;19.44;56.66;100655.13;5087862;28;20023;-86
2021/10/20 04:36:07;;;;;;;0.20;0.20;;;;;;;19.39;56.45;100650.91;5088635;28;20036;-86
2021/10/20 04:38:33;;;;;;;4.95;0.68;;;;;;;19.44;56.50;100647.94;5090713;28;20429;-86
2021/10/20 04:40:59;;;;;;;0.20;0.20;;;;;;;19.43;56.19;100648.00;5090417;28;20123;-87
2021/10/20 04:43:26;;;;;;;0.20;0.20;;;;;;;19.58;56.30;100641.72;5090834;28;20028;-88
2021/10/20 04:45:54;;;;;;;0.20;0.20;;;;;;;19.64;56.37;100645.84;5090581;28;20028;-87
2021/10/20 04:48:20;;;;;;;0.20;0.20;;;;;;;19.55;56.17;100652.63;5091341;28;20024;-88
2021/10/20 04:50:47;;;;;;;2.67;1.55;;;;;;;19.68;56.07;100653.63;5091359;28;20027;-87
2021/10/20 04:53:13;;;;;;;0.68;0.68;;;;;;;19.68;56.15;100648.25;5091461;28;20044;-88
2021/10/20 04:55:39;;;;;;;0.77;0.77;;;;;;;19.55;56.40;100649.94;5091249;28;20035;-89
2021/10/20 04:58:08;;;;;;;0.28;0.28;;;;;;;19.60;56.21;100653.25;5091236;28;20031;-90
2021/10/20 05:00:36;;;;;;;0.20;0.20;;;;;;;19.61;56.35;100649.56;5091030;28;20059;-87
2021/10/20 05:03:03;;;;;;;0.40;0.40;;;;;;;19.59;56.63;100654.22;5089644;28;20032;-88
2021/10/20 05:05:29;;;;;;;0.95;0.95;;;;;;;19.72;56.50;100671.28;5090862;28;20398;-92
2021/10/20 05:07:58;;;;;;;0.55;0.55;;;;;;;19.70;56.65;100634.72;5091131;28;21476;-87
2021/10/20 05:10:26;;;;;;;3.85;1.67;;;;;;;19.52;56.78;100636.72;5089130;28;20421;-88
2021/10/20 05:12:54;;;;;;;0.93;0.90;;;;;;;19.67;56.77;100633.06;5091298;28;20016;-89
2021/10/20 05:15:20;;;;;;;0.20;0.20;;;;;;;19.68;56.56;100634.81;5090006;28;20089;-86
2021/10/20 05:17:46;;;;;;;0.38;0.38;;;;;;;19.49;57.12;100627.03;5089345;28;20020;-86
2021/10/20 05:20:14;;;;;;;0.10;0.10;;;;;;;19.66;56.72;100623.28;5089296;28;20046;-88
2021/10/20 05:22:41;;;;;;;1.08;1.05;;;;;;;19.58;56.59;100609.47;5088414;28;20028;-88
2021/10/20 05:25:10;;;;;;;0.73;0.73;;;;;;;19.60;56.80;100607.56;5090993;28;20475;-86
2021/10/20 05:27:36;;;;;;;0.85;0.82;;;;;;;19.55;56.85;100602.47;5090644;28;20486;-87
2021/10/20 05:30:04;;;;;;;0.20;0.20;;;;;;;19.56;57.15;100608.69;5090634;28;20027;-92
2021/10/20 05:32:30;;;;;;;0.30;0.30;;;;;;;19.56;57.04;100603.31;5087279;28;20085;-88
2021/10/20 05:34:58;;;;;;;0.30;0.30;;;;;;;19.47;57.46;100602.06;5089167;28;20135;-86
2021/10/20 05:37:24;;;;;;;0.90;0.90;;;;;;;19.43;57.70;100600.53;5089790;28;20028;-86
2021/10/20 05:39:52;;;;;;;0.50;0.50;;;;;;;19.72;57.14;100606.78;5090176;28;20028;-86
2021/10/20 05:42:19;;;;;;;0.30;0.30;;;;;;;19.66;57.92;100595.56;5090446;28;20028;-88
2021/10/20 05:44:45;;;;;;;2.72;1.23;;;;;;;19.52;58.73;100583.81;5090665;28;20371;-86
2021/10/20 05:47:12;;;;;;;0.52;0.52;;;;;;;19.41;59.01;100578.25;5088971;28;20028;-84
2021/10/20 05:49:38;;;;;;;0.77;0.77;;;;;;;19.44;59.59;100563.75;5090711;28;20482;-86
2021/10/20 05:52:06;;;;;;;0.52;0.52;;;;;;;19.49;59.18;100561.66;5090785;28;20036;-83
2021/10/20 05:54:32;;;;;;;0.20;0.20;;;;;;;19.36;59.08;100573.16;5089303;28;20036;-87
2021/10/20 05:56:59;;;;;;;1.08;0.50;;;;;;;19.43;59.00;100562.03;5086334;28;20550;-85
2021/10/20 05:59:25;;;;;;;0.88;0.88;;;;;;;19.50;58.94;100548.16;5089924;28;20047;-87
2021/10/20 06:01:51;;;;;;;0.13;0.13;;;;;;;19.44;58.95;100551.22;5088871;28;20081;-87
2021/10/20 06:04:18;;;;;;;0.55;0.55;;;;;;;19.43;58.91;100537.84;5090283;28;20016;-86
2021/10/20 06:06:45;;;;;;;1.35;1.30;;;;;;;19.52;58.38;100521.19;5090630;28;20383;-87
2021/10/20 06:09:13;;;;;;;0.20;0.20;;;;;;;19.34;58.57;100520.50;5089565;28;20054;-86
2021/10/20 06:11:39;;;;;;;1.15;1.15;;;;;;;19.38;58.62;100514.84;5091559;28;20035;-86
2021/10/20 06:14:06;;;;;;;0.10;0.10;;;;;;;19.48;58.33;100525.03;5088947;28;20032;-86
2021/10/20 06:16:35;;;;;;;0.10;0.10;;;;;;;19.46;58.47;100497.38;5091226;28;20032;-86
2021/10/20 06:19:03;;;;;;;0.25;0.25;;;;;;;19.51;58.41;100506.88;5084201;28;20024;-85
2021/10/20 06:21:29;;;;;;;3.25;1.30;;;;;;;19.50;58.39;100501.59;5084983;28;20039;-85
2021/10/20 06:23:55;;;;;;;0.73;0.73;;;;;;;19.52;58.52;100502.38;5094758;28;20386;-84
2021/10/20 06:26:22;;;;;;;0.10;0.10;;;;;;;19.41;58.68;100494.97;5093478;28;20027;-83
2021/10/20 06:28:48;;;;;;;0.17;0.17;;;;;;;19.53;58.61;100490.66;5086574;28;20029;-84
2021/10/20 06:31:14;;;;;;;0.68;0.68;;;;;;;19.46;58.54;100518.88;5087339;28;20471;-83
2021/10/20 06:33:46;;;;;;;0.10;0.10;;;;;;;19.47;58.76;100521.47;5095382;28;20031;-86
2021/10/20 06:36:27;;;;;;;1.77;1.13;;;;;;;19.44;59.07;100537.78;5095312;28;20032;-84
2021/10/20 06:38:53;;;;;;;1.27;1.20;;;;;;;19.35;59.69;100555.34;5093083;28;20055;-86
2021/10/20 06:41:19;;;;;;;0.17;0.17;;;;;;;19.33;60.57;100562.63;5089460;28;20036;-85
2021/10/20 06:43:46;;;;;;;0.25;0.25;;;;;;;19.10;61.49;100538.97;5096328;28;20028;-87
2021/10/20 06:46:12;;;;;;;0.40;0.40;;;;;;;19.03;61.68;100533.13;5096575;28;20475;-86
2021/10/20 06:48:38;;;;;;;0.20;0.20;;;;;;;18.96;62.62;100543.34;5094882;28;20032;-87
2021/10/20 06:51:06;;;;;;;0.10;0.10;;;;;;;18.82;63.22;100535.25;5095801;28;20438;-88
2021/10/20 06:53:32;;;;;;;0.73;0.73;;;;;;;18.53;64.96;100521.72;5096289;28;20029;-86
2021/10/20 06:55:59;;;;;;;0.17;0.17;;;;;;;18.49;65.04;100499.59;5095856;28;20430;-87
2021/10/20 06:58:27;;;;;;;3.97;1.10;;;;;;;18.35;65.83;100488.81;5095408;28;20360;-87
2021/10/20 07:00:53;;;;;;;0.85;0.85;;;;;;;18.35;65.87;100486.97;5095616;28;20099;-88
2021/10/20 07:03:19;;;;;;;2.25;0.82;;;;;;;18.25;66.76;100480.41;5084698;28;20403;-87
2021/10/20 07:05:46;;;;;;;0.22;0.22;;;;;;;18.17;66.70;100461.22;5091905;28;20056;-86
2021/10/20 07:08:12;;;;;;;0.30;0.30;;;;;;;18.14;67.33;100454.22;5094647;28;20028;-89
2021/10/20 07:10:38;;;;;;;0.43;0.43;;;;;;;18.14;66.92;100442.66;5095959;28;20024;-87
2021/10/20 07:13:05;;;;;;;0.15;0.15;;;;;;;18.08;67.52;100422.41;5094770;28;20036;-88
2021/10/20 07:15:32;;;;;;;1.08;1.00;;;;;;;18.14;67.32;100414.00;5095999;28;20032;-88
2021/10/20 07:18:05;;;;;;;0.10;0.10;;;;;;;18.18;67.83;100391.44;5085512;28;20036;-89
2021/10/20 07:20:34;;;;;;;0.13;0.13;;;;;;;18.11;67.70;100388.25;5084980;28;20027;-89
2021/10/20 07:23:03;;;;;;;0.20;0.20;;;;;;;18.06;67.75;100379.59;5090621;28;20067;-89
2021/10/20 07:25:29;;;;;;;0.10;0.10;;;;;;;18.15;67.86;100375.53;5089859;28;20032;-86
2021/10/20 07:27:55;;;;;;;0.10;0.10;;;;;;;18.06;68.51;100374.25;5092394;28;20785;-87
2021/10/20 07:30:52;;;;;;;0.30;0.30;;;;;;;18.19;68.15;100382.41;5092717;28;20028;-91
2021/10/20 07:33:31;;;;;;;0.47;0.47;;;;;;;18.14;68.38;100394.38;5094351;28;20091;-91
2021/10/20 07:36:21;;;;;;;;;;;;;;;;;;;;;
2021/10/20 07:39:03;;;;;;;0.43;0.43;;;;;;;18.09;68.04;100387.50;5095579;28;20043;-90
2021/10/20 07:41:56;;;;;;;0.20;0.20;;;;;;;18.15;68.47;100385.41;5094944;28;20478;-90
2021/10/20 07:44:24;;;;;;;0.63;0.63;;;;;;;17.92;69.03;100380.38;5089528;28;20028;-89
2021/10/20 07:47:23;;;;;;;;;;;;;;;;;;;;;
2021/10/20 07:50:45;;;;;;;0.30;0.30;;;;;;;18.11;68.39;100380.19;5079151;28;20040;-89
2021/10/20 07:53:24;;;;;;;0.20;0.20;;;;;;;18.08;68.43;100380.38;5092802;28;20075;-88
2021/10/20 07:55:51;;;;;;;0.43;0.43;;;;;;;17.98;68.55;100373.84;5095350;28;20020;-90
2021/10/20 07:58:20;;;;;;;0.10;0.10;;;;;;;18.10;68.67;100356.16;5092267;28;20498;-89
2021/10/20 08:00:46;;;;;;;0.20;0.20;;;;;;;17.99;68.90;100370.19;5087465;28;20020;-90
2021/10/20 08:03:12;;;;;;;0.10;0.10;;;;;;;18.13;68.72;100371.19;5088395;28;20028;-92
2021/10/20 08:05:41;;;;;;;1.05;0.95;;;;;;;18.07;68.74;100369.78;5092054;28;20074;-92
2021/10/20 08:08:10;;;;;;;1.27;1.23;;;;;;;18.12;68.63;100354.28;5092893;28;20039;-93
2021/10/20 08:10:40;;;;;;;0.32;0.32;;;;;;;18.05;68.85;100356.44;5093877;28;20032;-94
2021/10/20 08:13:08;;;;;;;0.20;0.20;;;;;;;18.10;68.76;100366.88;5090819;28;20032;-91
2021/10/20 08:15:34;;;;;;;0.10;0.10;;;;;;;18.14;68.98;100365.75;5094004;28;20081;-86
2021/10/20 08:18:52;;;;;;;0.20;0.20;;;;;;;18.42;68.15;100373.00;5093049;28;20122;-91
2021/10/20 08:21:49;;;;;;;0.10;0.10;;;;;;;18.54;67.87;100366.03;5099096;28;20130;-89
2021/10/20 08:24:51;;;;;;;;;;;;;;;;;;;;;
2021/10/20 08:27:30;;;;;;;0.40;0.40;;;;;;;18.48;67.56;100376.25;5059077;28;20044;-89
2021/10/20 08:29:57;;;;;;;0.55;0.55;;;;;;;18.47;68.24;100367.38;5035893;28;20371;-88
2021/10/20 08:32:23;;;;;;;0.57;0.57;;;;;;;18.63;67.73;100369.97;5073612;28;20123;-90
2021/10/20 08:34:50;;;;;;;0.17;0.17;;;;;;;18.57;67.60;100365.00;5074660;28;20032;-90
2021/10/20 08:37:17;;;;;;;0.82;0.82;;;;;;;18.69;67.28;100372.28;5074535;28;20029;-90
2021/10/20 08:39:44;;;;;;;0.10;0.10;;;;;;;18.74;67.44;100378.22;5074296;28;20052;-89
2021/10/20 08:42:11;;;;;;;0.60;0.60;;;;;;;18.79;67.34;100374.38;5074497;28;20028;-88
2021/10/20 08:44:38;;;;;;;0.10;0.10;;;;;;;18.90;66.80;100366.53;5074569;28;20383;-92
2021/10/20 08:47:05;;;;;;;0.20;0.20;;;;;;;18.78;67.30;100359.25;5073407;28;20077;-89
2021/10/20 08:49:32;;;;;;;0.70;0.70;;;;;;;18.81;67.27;100361.75;5074201;28;20119;-85
2021/10/20 08:51:58;;;;;;;0.20;0.20;;;;;;;18.86;67.17;100341.69;5074034;28;20058;-89
2021/10/20 08:54:24;;;;;;;0.20;0.20;;;;;;;18.94;66.97;100345.75;5073964;28;20539;-93
2021/10/20 08:56:51;;;;;;;0.20;0.20;;;;;;;18.76;66.69;100344.09;5074038;28;20103;-88
2021/10/20 08:59:20;;;;;;;0.13;0.13;;;;;;;18.97;66.87;100367.91;5074199;28;20468;-90
2021/10/20 09:01:46;;;;;;;0.10;0.10;;;;;;;19.05;66.44;100381.72;5073521;28;20028;-88
2021/10/20 09:04:18;;;;;;;0.10;0.10;;;;;;;19.20;66.05;100368.25;5073747;28;20087;-92
2021/10/20 09:06:44;;;;;;;0.10;0.10;;;;;;;19.14;66.30;100374.91;5073798;28;20028;-90
2021/10/20 09:09:10;;;;;;;0.68;0.68;;;;;;;19.16;66.21;100374.81;5073513;28;20028;-87
2021/10/20 09:11:39;;;;;;;0.40;0.40;;;;;;;19.08;65.97;100370.78;5073765;28;20500;-93
2021/10/20 09:16:45;;;;;;;0.20;0.20;;;;;;;19.11;65.83;100348.22;5090797;27;20875;-94
2021/10/20 09:19:18;;;;;;;0.50;0.50;;;;;;;19.34;65.72;100349.44;5055355;28;20065;-92
2021/10/20 09:24:40;;;;;;;0.20;0.20;;;;;;;19.43;65.25;100337.25;5153007;27;20394;-91
2021/10/20 09:27:17;;;;;;;;;;;;;;;19.51;65.02;100328.69;5122245;27;20069;-92
2021/10/20 09:29:43;;;;;;;0.10;0.10;;;;;;;19.38;65.26;100334.84;5108917;28;19976;-92
2021/10/20 09:32:10;;;;;;;0.88;0.35;;;;;;;19.22;65.47;100329.59;5092193;28;20110;-90
2021/10/20 09:34:38;;;;;;;0.55;0.55;;;;;;;19.46;64.82;100337.03;5110311;28;20374;-93
2021/10/20 09:37:06;;;;;;;0.35;0.35;;;;;;;19.24;65.44;100318.78;5106792;28;20024;-96
2021/10/20 09:39:33;;;;;;;0.10;0.10;;;;;;;19.37;65.16;100327.75;5106593;28;20077;-95
2021/10/20 09:42:17;;;;;;;0.30;0.30;;;;;;;19.41;65.13;100320.34;5111259;28;20039;-91
2021/10/20 09:44:52;;;;;;;0.10;0.10;;;;;;;19.26;65.53;100314.16;5109673;28;20027;-88
2021/10/20 09:47:20;;;;;;;0.52;0.52;;;;;;;19.42;65.10;100313.19;5120259;28;20028;-92
2021/10/20 09:49:50;;;;;;;0.20;0.20;;;;;;;19.20;65.41;100319.94;5111272;28;20027;-92
2021/10/20 09:52:21;;;;;;;0.43;0.43;;;;;;;19.34;65.39;100329.78;5108710;28;20505;-91
2021/10/20 09:54:47;;;;;;;0.10;0.10;;;;;;;19.16;65.56;100329.16;5090999;28;20029;-90
2021/10/20 09:57:15;;;;;;;0.30;0.30;;;;;;;19.23;65.55;100317.91;5103728;28;20111;-90
2021/10/20 09:59:43;;;;;;;0.63;0.63;;;;;;;19.41;65.14;100333.78;5109898;28;20020;-93
2021/10/20 10:02:10;;;;;;;0.10;0.10;;;;;;;19.44;65.17;100311.22;5111029;28;20478;-91
2021/10/20 10:04:38;;;;;;;1.27;1.17;;;;;;;19.56;64.74;100326.53;5110792;28;20028;-91
2021/10/20 10:07:05;;;;;;;0.13;0.13;;;;;;;19.46;64.76;100310.16;5112022;28;20035;-93
2021/10/20 10:09:32;;;;;;;0.10;0.10;;;;;;;19.72;64.19;100295.00;5110536;28;20020;-94
2021/10/20 10:15:09;;;;;;;0.85;0.82;;;;;;;19.78;63.71;100323.28;5072960;27;20447;-94
2021/10/20 10:17:40;;;;;;;1.35;1.33;;;;;;;19.82;63.76;100329.31;5075082;28;20037;-93
2021/10/20 10:23:06;;;;;;;0.10;0.10;;;;;;;19.72;63.40;100332.63;5110737;27;20399;-89
2021/10/20 10:25:37;;;;;;;0.30;0.30;;;;;;;19.76;63.35;100319.00;5111086;28;20028;-91
2021/10/20 10:33:54;;;;;;;0.32;0.32;;;;;;;19.89;63.11;100311.84;5091599;27;20490;-89
2021/10/20 10:36:24;;;;;;;0.10;0.10;;;;;;;19.85;63.30;100316.59;5090401;28;20028;-86
2021/10/20 10:39:04;;;;;;;0.10;0.10;;;;;;;20.02;62.78;100326.16;5079677;28;20096;-89
2021/10/20 10:41:48;;;;;;;0.85;0.85;;;;;;;19.86;63.28;100298.59;5070372;28;20078;-88
2021/10/20 10:44:20;;;;;;;0.10;0.10;;;;;;;19.89;63.28;100309.16;5070133;28;20486;-88
2021/10/20 10:49:46;;;;;;;0.10;0.10;;;;;;;20.31;62.35;100306.31;5049646;27;20430;-91
2021/10/20 10:57:42;;;;;;;0.70;0.70;;;;;;;20.23;62.28;100306.84;5089508;27;20451;-88
2021/10/20 11:00:27;;;;;;;0.45;0.45;;;;;;;20.33;61.49;100310.63;5070677;28;20029;-88
2021/10/20 11:05:35;;;;;;;0.30;0.30;;;;;;;20.28;61.56;100304.69;5090750;28;20413;-90
2021/10/20 11:08:03;;;;;;;0.10;0.10;;;;;;;20.33;61.82;100325.91;5066090;28;20041;-86
2021/10/20 11:10:31;;;;;;;0.55;0.55;;;;;;;20.01;62.57;100316.41;5030717;28;20080;-84
2021/10/20 11:13:01;;;;;;;0.55;0.55;;;;;;;20.06;62.29;100305.31;5047334;28;20074;-87
2021/10/20 11:15:29;;;;;;;0.10;0.10;;;;;;;20.16;62.03;100319.00;5047841;28;20037;-86
2021/10/20 11:17:56;;;;;;;0.38;0.38;;;;;;;20.30;61.98;100305.47;5037913;28;20037;-87
2021/10/20 11:20:24;;;;;;;0.10;0.10;;;;;;;20.22;62.17;100298.91;5041155;28;20080;-88
2021/10/20 11:22:53;;;;;;;0.28;0.28;;;;;;;20.03;62.48;100300.16;5050350;28;20033;-88
2021/10/20 11:25:21;;;;;;;0.40;0.40;;;;;;;20.16;62.23;100313.63;5050122;28;20032;-88
2021/10/20 11:27:51;;;;;;;0.43;0.43;;;;;;;20.33;61.73;100317.84;5049698;28;20025;-89
2021/10/20 11:30:22;;;;;;;0.10;0.10;;;;;;;20.17;62.02;100305.44;5049961;28;20090;-89
2021/10/20 11:33:02;;;;;;;0.10;0.10;;;;;;;20.16;62.38;100305.53;5049355;28;20076;-90
2021/10/20 11:36:26;;;;;;;0.17;0.17;;;;;;;20.44;61.86;100301.81;5048737;28;20542;-91
2021/10/20 11:39:04;;;;;;;0.20;0.20;;;;;;;20.30;62.29;100294.69;5001270;28;20040;-84
2021/10/20 11:42:12;;;;;;;0.20;0.20;;;;;;;20.19;62.54;100291.91;5040555;28;20033;-88
2021/10/20 11:44:42;;;;;;;0.10;0.10;;;;;;;20.22;62.17;100285.44;5016775;28;20145;-89
2021/10/20 11:47:32;;;;;;;0.15;0.15;;;;;;;20.22;62.51;100280.91;5019072;28;20485;-92
2021/10/20 11:50:25;;;;;;;0.10;0.10;;;;;;;20.27;61.91;100278.75;5005017;28;20038;-91
2021/10/20 11:53:17;;;;;;;0.10;0.10;;;;;;;20.16;62.30;100292.09;5018611;28;20127;-92
2021/10/20 11:56:02;;;;;;;0.30;0.30;;;;;;;20.19;62.28;100283.84;5035428;28;20048;-95
2021/10/20 12:04:43;;;;;;;3.20;1.17;;;;;;;20.23;62.17;100290.72;5448838;22;20079;-93
2021/10/20 12:07:29;;;;;;;;;;;;;;;;;;;;;
2021/10/20 12:10:58;;;;;;;0.30;0.30;;;;;;;20.46;61.50;100261.31;5033235;28;20048;-92
2021/10/20 12:17:05;;;;;;;0.20;0.20;;;;;;;20.41;61.19;100274.25;4915646;28;20039;-91
2021/10/20 12:20:17;;;;;;;0.32;0.32;;;;;;;20.43;61.68;100269.63;5034868;28;20124;-91
2021/10/20 12:23:16;;;;;;;;;;;;;;;;;;;;;